»·PEaware :: N106MR KSEA-CYVR

N106MR :: KSEA-CYVR

FLIGHT INFORMATION

Flight Status: Arrived
Operator: Privately registered:
United States
More flights under this callsign
Pilot: Michael R. (16974)
Aircraft: MITSUBISHI MU-2 MARQUISE
(MU2)
More flights by this aircraft type
Origin: KSEA Seattle-Tacoma Intl
United States
Destination: CYVR Vancouver Intl
Canada
More flights between these airports :: More routes between these airports
Route: LOFAL V495 CONDI V338 YVR
File this flight plan on PilotEdge
Remarks:
Altitude:
(Current/Filed)
12,000ft
Speed:
(Current/Filed)
260kts
Departed: 27-Dec-17 08:23 PM
Arrived: 27-Dec-17 09:09 PM
Distance/Time
Traveled:
110nm/0:46
Distance/Time
To Go:
Arrived

Flight Plot

Page will automatically refresh every two minutes.

Flight plan parsing failed; only flown route is shown


Map Options




Map Legend


Flown Route
Filed Route
Departure Airport
Arrival Airport
Navaid (VOR, NDB)
Fix

Horizontal Profiles

Position Reports

Time Latitude Longitude Heading Altitude Ground
Speed
27-Dec-17 19:52 47.439010 -122.315053 55 348ft 0kts
27-Dec-17 19:53 47.439010 -122.315053 55 348ft 0kts
27-Dec-17 19:54 47.439010 -122.315053 55 348ft 0kts
27-Dec-17 19:55 47.439010 -122.315053 55 348ft 0kts
27-Dec-17 19:56 47.439010 -122.315053 55 348ft 0kts
27-Dec-17 19:57 47.439010 -122.315053 55 348ft 0kts
27-Dec-17 19:58 47.439010 -122.315053 55 348ft 0kts
27-Dec-17 19:59 47.439010 -122.315053 55 348ft 0kts
27-Dec-17 20:00 47.439010 -122.315053 55 348ft 0kts
27-Dec-17 20:01 47.439010 -122.315053 55 348ft 0kts
27-Dec-17 20:02 47.439010 -122.315053 55 348ft 0kts
27-Dec-17 20:03 47.439010 -122.315053 55 348ft 0kts
27-Dec-17 20:04 47.439010 -122.315053 55 348ft 0kts
27-Dec-17 20:05 47.439010 -122.315053 55 348ft 0kts
27-Dec-17 20:06 47.439010 -122.315053 55 348ft 0kts
27-Dec-17 20:07 47.439010 -122.315053 55 348ft 0kts
27-Dec-17 20:08 47.439010 -122.315053 55 348ft 0kts
27-Dec-17 20:09 47.439010 -122.315054 55 348ft 0kts
27-Dec-17 20:10 47.439010 -122.315054 55 348ft 0kts
27-Dec-17 20:11 47.439010 -122.315054 55 348ft 0kts
27-Dec-17 20:12 47.439010 -122.315054 55 348ft 0kts
27-Dec-17 20:13 47.439010 -122.315054 55 348ft 0kts
27-Dec-17 20:14 47.439010 -122.315054 55 348ft 0kts
27-Dec-17 20:15 47.439010 -122.315054 55 348ft 0kts
27-Dec-17 20:16 47.439010 -122.315054 55 348ft 0kts
27-Dec-17 20:17 47.439010 -122.315054 55 348ft 0kts
27-Dec-17 20:18 47.439010 -122.315054 55 348ft 0kts
27-Dec-17 20:19 47.439010 -122.315054 55 348ft 0kts
27-Dec-17 20:20 47.439622 -122.313824 38 353ft 10kts
27-Dec-17 20:21 47.444160 -122.313582 0 370ft 20kts
27-Dec-17 20:22 47.449848 -122.313528 0 392ft 20kts
27-Dec-17 20:23 47.456181 -122.313484 1 393ft 24kts
27-Dec-17 20:24 47.463053 -122.313416 3 372ft 12kts
27-Dec-17 20:25 47.463689 -122.316594 271 338ft 0kts
27-Dec-17 20:26 47.463689 -122.316594 271 338ft 0kts
27-Dec-17 20:27 47.463689 -122.316594 271 338ft 0kts
27-Dec-17 20:28 47.462874 -122.317850 179 329ft 0kts
27-Dec-17 20:29 47.441996 -122.318507 178 830ft 143kts
27-Dec-17 20:30 47.400103 -122.315325 177 2216ft 152kts
27-Dec-17 20:31 47.358000 -122.311949 181 3482ft 152kts
27-Dec-17 20:32 47.342266 -122.349023 287 4607ft 128kts
27-Dec-17 20:33 47.353000 -122.402226 287 5613ft 162kts
27-Dec-17 20:34 47.367978 -122.471265 287 7395ft 185kts
27-Dec-17 20:35 47.394632 -122.533881 324 9308ft 196kts
27-Dec-17 20:36 47.447464 -122.558935 341 11260ft 204kts
27-Dec-17 20:37 47.501819 -122.575605 341 11990ft 217kts
27-Dec-17 20:38 47.564494 -122.594367 342 11985ft 240kts
27-Dec-17 20:39 47.631100 -122.614268 342 11983ft 248kts
27-Dec-17 20:40 47.699241 -122.634691 342 11982ft 251kts
27-Dec-17 20:41 47.766376 -122.654832 341 12004ft 251kts
27-Dec-17 20:42 47.834696 -122.675464 341 12005ft 251kts
27-Dec-17 20:43 47.894705 -122.719316 323 12005ft 241kts
27-Dec-17 20:44 47.952135 -122.771241 323 11988ft 241kts
27-Dec-17 20:45 48.009301 -122.823008 323 11985ft 240kts
27-Dec-17 20:46 48.066302 -122.874736 323 11984ft 240kts
27-Dec-17 20:47 48.121987 -122.925400 323 11986ft 240kts
27-Dec-17 20:48 48.179102 -122.977493 323 11987ft 243kts
27-Dec-17 20:49 48.237355 -123.030800 323 11986ft 249kts
27-Dec-17 20:50 48.296523 -123.085072 323 11967ft 251kts
27-Dec-17 20:51 48.356023 -123.139780 323 11969ft 252kts
27-Dec-17 20:52 48.416328 -123.193274 323 11965ft 252kts
27-Dec-17 20:53 48.475365 -123.248348 323 11397ft 240kts
27-Dec-17 20:54 48.529497 -123.298774 322 10018ft 222kts
27-Dec-17 20:55 48.576204 -123.320161 25 8797ft 245kts
27-Dec-17 20:56 48.615825 -123.222496 23 7109ft 235kts
27-Dec-17 20:57 48.665009 -123.199797 0 6036ft 215kts
27-Dec-17 20:58 48.717875 -123.192468 359 5657ft 179kts
27-Dec-17 20:59 48.778335 -123.185263 2 4165ft 194kts
27-Dec-17 21:00 48.823296 -123.179841 4 3107ft 195kts
27-Dec-17 21:01 48.871862 -123.173859 5 3002ft 168kts
27-Dec-17 21:02 48.923593 -123.167699 5 3003ft 200kts
27-Dec-17 21:03 48.980821 -123.160820 5 2988ft 210kts
27-Dec-17 21:04 49.039366 -123.153673 5 2987ft 212kts
27-Dec-17 21:05 49.083490 -123.111080 69 3007ft 220kts
27-Dec-17 21:06 49.098509 -123.019278 70 3003ft 223kts
27-Dec-17 21:07 49.097495 -122.927320 91 3022ft 230kts
27-Dec-17 21:08 49.091352 -122.829553 91 3028ft 234kts
27-Dec-17 21:09 49.110017 -122.752081 355 3024ft 215kts
27-Dec-17 21:10 49.143306 -122.823157 280 3025ft 225kts
27-Dec-17 21:11 49.151767 -122.918194 281 3020ft 226kts
27-Dec-17 21:12 49.164504 -123.007181 286 2415ft 184kts
27-Dec-17 21:13 49.174834 -123.077265 286 1234ft 145kts
27-Dec-17 21:14 49.181543 -123.133573 280 432ft 118kts
27-Dec-17 21:15 49.185881 -123.170510 279 10ft 19kts
27-Dec-17 21:16 49.187982 -123.176996 8 10ft 16kts
27-Dec-17 21:17 49.188373 -123.174344 100 10ft 0kts
27-Dec-17 21:18 49.188373 -123.174344 100 10ft 0kts
27-Dec-17 21:19 49.188373 -123.174344 100 10ft 0kts
27-Dec-17 21:20 49.188373 -123.174344 100 10ft 0kts
27-Dec-17 21:21 49.188373 -123.174344 100 10ft 0kts
27-Dec-17 21:22 49.188373 -123.174344 100 10ft 0kts
27-Dec-17 21:23 49.188373 -123.174344 100 10ft 0kts
27-Dec-17 21:24 49.188373 -123.174344 100 10ft 0kts
27-Dec-17 21:25 49.188373 -123.174344 100 10ft 0kts
27-Dec-17 21:26 49.188373 -123.174344 100 10ft 0kts
27-Dec-17 21:27 49.188373 -123.174344 100 10ft 0kts
27-Dec-17 21:28 49.188373 -123.174344 100 10ft 0kts
27-Dec-17 21:29 49.188373 -123.174344 100 10ft 0kts

Navigation Log

Ident Type
Flight plan parsing failed, navigation log unavailable